Time;durP1;ratioP1;P1;durP2;ratioP2;P2;SDS_P1;SDS_P2;PMS_P1;PMS_P2;Temp;Humidity;BMP_temperature;BMP_pressure;BME280_temperature;BME280_humidity;BME280_pressure;Samples;Min_cycle;Max_cycle;Signal;HPM_P1;HPM_P2
2023/06/11 00:01:23;;;;;;;15.63;5.70;;;18.60;99.90;;;;;;5020184;28;20054;-70
2023/06/11 00:03:53;;;;;;;14.02;5.72;;;18.60;99.90;;;;;;4954688;28;213663;-72
2023/06/11 00:06:22;;;;;;;18.20;6.43;;;18.60;99.90;;;;;;4993884;28;20065;-71
2023/06/11 00:08:51;;;;;;;15.88;6.10;;;18.60;99.90;;;;;;4936627;28;184558;-72
2023/06/11 00:11:18;;;;;;;15.73;5.82;;;18.50;99.90;;;;;;4994115;28;20051;-71
2023/06/11 00:13:44;;;;;;;15.23;5.45;;;18.50;99.90;;;;;;4939284;28;209719;-71
2023/06/11 00:16:12;;;;;;;13.30;5.80;;;18.40;99.90;;;;;;5003015;28;20050;-72
2023/06/11 00:18:42;;;;;;;15.77;7.07;;;18.40;99.90;;;;;;4942988;28;207038;-71
2023/06/11 00:21:09;;;;;;;13.02;5.90;;;18.40;99.90;;;;;;5007230;28;20069;-72
2023/06/11 00:23:36;;;;;;;11.93;6.25;;;18.40;99.90;;;;;;4959008;28;119250;-72
2023/06/11 00:26:07;;;;;;;15.23;6.45;;;18.50;99.90;;;;;;4991580;28;20051;-72
2023/06/11 00:28:33;;;;;;;17.25;7.13;;;18.50;99.90;;;;;;4995275;28;72621;-71
2023/06/11 00:31:00;;;;;;;15.52;6.38;;;18.50;99.90;;;;;;5013878;28;20033;-72
2023/06/11 00:33:27;;;;;;;13.35;6.53;;;18.50;99.90;;;;;;4971083;28;212107;-72
2023/06/11 00:35:53;;;;;;;16.30;6.10;;;18.50;99.90;;;;;;4997748;28;20054;-71
2023/06/11 00:38:20;;;;;;;16.63;6.20;;;18.50;99.90;;;;;;4958988;28;209285;-71
2023/06/11 00:40:47;;;;;;;12.25;6.60;;;18.50;99.90;;;;;;5023495;28;20050;-72
2023/06/11 00:43:13;;;;;;;15.37;6.53;;;18.50;99.90;;;;;;4949405;28;209286;-72
2023/06/11 00:45:41;;;;;;;12.20;6.13;;;18.50;99.90;;;;;;4969633;28;20050;-72
2023/06/11 00:48:07;;;;;;;12.38;6.38;;;18.50;99.90;;;;;;4999228;28;208897;-71
2023/06/11 00:50:44;;;;;;;13.30;6.03;;;18.40;99.90;;;;;;4928171;28;194901;-71
2023/06/11 00:53:12;;;;;;;15.35;6.90;;;18.40;99.90;;;;;;4982119;28;210114;-72
2023/06/11 00:55:38;;;;;;;11.43;6.10;;;18.40;99.90;;;;;;4972879;28;138561;-72
2023/06/11 00:58:13;;;;;;;12.02;6.32;;;18.40;99.90;;;;;;5010071;28;210370;-72
2023/06/11 01:00:49;;;;;;;12.98;6.60;;;18.30;99.90;;;;;;4957720;28;20057;-72
2023/06/11 01:03:21;;;;;;;12.63;6.28;;;18.30;99.90;;;;;;4955156;28;231341;-71
2023/06/11 01:06:05;;;;;;;13.82;7.20;;;18.30;99.90;;;;;;4976135;28;20047;-71
2023/06/11 01:08:35;;;;;;;12.20;6.70;;;18.30;99.90;;;;;;4933941;28;211397;-72
2023/06/11 01:11:01;;;;;;;12.68;6.80;;;18.40;99.90;;;;;;4999233;28;20046;-71
2023/06/11 01:13:28;;;;;;;13.93;6.75;;;18.30;99.90;;;;;;4931638;28;208275;-71
2023/06/11 01:16:36;;;;;;;13.40;6.80;;;18.30;99.90;;;;;;5029760;28;20046;-71
2023/06/11 01:19:38;;;;;;;12.77;7.05;;;18.30;99.90;;;;;;4987413;28;117799;-71
2023/06/11 01:22:38;;;;;;;11.63;6.47;;;18.30;99.90;;;;;;4995808;28;20058;-71
2023/06/11 01:25:29;;;;;;;12.52;6.82;;;18.30;99.90;;;;;;4901483;28;207758;-70
2023/06/11 01:28:03;;;;;;;12.25;6.90;;;18.30;99.90;;;;;;4958819;28;20705;-71
2023/06/11 01:30:32;;;;;;;12.20;7.05;;;18.30;99.90;;;;;;4893408;28;207027;-70
2023/06/11 01:33:00;;;;;;;11.60;6.35;;;18.30;99.90;;;;;;4982520;28;20050;-70
2023/06/11 01:35:27;;;;;;;11.27;6.35;;;18.30;99.90;;;;;;4917692;28;219581;-71
2023/06/11 01:37:57;;;;;;;13.90;7.10;;;18.30;99.90;;;;;;4967902;28;20064;-72
2023/06/11 01:40:28;;;;;;;12.35;6.50;;;18.30;99.90;;;;;;4914951;28;209356;-70
2023/06/11 01:42:55;;;;;;;13.15;6.70;;;18.30;99.90;;;;;;4982174;28;20046;-70
2023/06/11 01:45:23;;;;;;;12.82;6.43;;;18.20;99.90;;;;;;4927724;28;101548;-70
2023/06/11 01:47:50;;;;;;;14.10;7.03;;;18.20;99.90;;;;;;4965655;28;20047;-70
2023/06/11 01:50:17;;;;;;;12.77;7.10;;;18.20;99.90;;;;;;4912227;28;205621;-70
2023/06/11 01:52:44;;;;;;;15.23;7.00;;;18.10;99.90;;;;;;4982174;28;20053;-70
2023/06/11 01:55:10;;;;;;;11.57;6.93;;;18.10;99.90;;;;;;4915553;28;209926;-70
2023/06/11 01:57:37;;;;;;;14.77;6.93;;;18.10;99.90;;;;;;4989727;28;20050;-71
2023/06/11 02:00:10;;;;;;;13.93;7.40;;;18.10;99.90;;;;;;4925322;28;206586;-72
2023/06/11 02:02:41;;;;;;;10.75;6.85;;;18.10;99.90;;;;;;4987632;28;20068;-72
2023/06/11 02:05:07;;;;;;;15.27;6.93;;;18.00;99.90;;;;;;4947746;28;214187;-71
2023/06/11 02:07:33;;;;;;;11.00;6.60;;;18.10;99.90;;;;;;4986850;28;20636;-71
2023/06/11 02:10:00;;;;;;;14.70;7.20;;;18.10;99.90;;;;;;4958256;28;212850;-72
2023/06/11 02:12:26;;;;;;;10.82;6.72;;;18.10;99.90;;;;;;4986838;28;20054;-71
2023/06/11 02:14:52;;;;;;;12.50;7.25;;;18.10;99.90;;;;;;4967328;28;207060;-71
2023/06/11 02:17:18;;;;;;;12.90;7.13;;;18.20;99.90;;;;;;4996543;28;20047;-71
2023/06/11 02:19:44;;;;;;;11.52;7.22;;;18.20;99.90;;;;;;4945715;28;141790;-71
2023/06/11 02:22:10;;;;;;;12.10;7.05;;;18.20;99.90;;;;;;4989018;28;20579;-72
2023/06/11 02:24:36;;;;;;;12.30;6.50;;;18.20;99.90;;;;;;4942897;28;232936;-72
2023/06/11 02:27:02;;;;;;;10.18;6.68;;;18.20;99.90;;;;;;5011648;28;20494;-72
2023/06/11 02:29:28;;;;;;;11.98;6.90;;;18.20;99.90;;;;;;4955034;28;179773;-71
2023/06/11 02:31:55;;;;;;;13.98;7.10;;;18.20;99.90;;;;;;4990035;28;20054;-71
2023/06/11 02:34:21;;;;;;;12.23;6.97;;;18.10;99.90;;;;;;4952435;28;209152;-72
2023/06/11 02:36:47;;;;;;;14.77;7.10;;;18.00;99.90;;;;;;4987904;28;20054;-72
2023/06/11 02:39:14;;;;;;;10.93;6.90;;;18.00;99.90;;;;;;4927143;28;207665;-71
2023/06/11 02:41:40;;;;;;;12.75;7.20;;;18.00;99.90;;;;;;5001295;28;20058;-71
2023/06/11 02:44:06;;;;;;;11.77;7.30;;;17.90;99.90;;;;;;4947811;28;209096;-72
2023/06/11 02:46:32;;;;;;;12.25;7.47;;;17.80;99.90;;;;;;5000247;28;20127;-71
2023/06/11 02:48:58;;;;;;;11.60;7.25;;;17.80;99.90;;;;;;4945139;28;206433;-71
2023/06/11 02:51:24;;;;;;;14.52;7.65;;;17.70;99.90;;;;;;5004619;28;20077;-71
2023/06/11 02:53:51;;;;;;;12.90;7.35;;;17.70;99.90;;;;;;4935999;28;216448;-72
2023/06/11 02:56:17;;;;;;;12.88;7.18;;;17.70;99.90;;;;;;4999612;28;20065;-72
2023/06/11 02:58:44;;;;;;;12.00;7.43;;;17.60;99.90;;;;;;4960202;28;210608;-70
2023/06/11 03:01:11;;;;;;;12.48;7.38;;;17.60;99.90;;;;;;5018464;28;20159;-70
2023/06/11 03:03:37;;;;;;;12.88;7.40;;;17.60;99.90;;;;;;4961327;28;206767;-70
2023/06/11 03:06:03;;;;;;;11.63;7.03;;;17.50;99.90;;;;;;5024051;28;20062;-70
2023/06/11 03:08:29;;;;;;;11.90;7.30;;;17.50;99.90;;;;;;4941015;28;208399;-69
2023/06/11 03:10:55;;;;;;;12.93;7.47;;;17.50;99.90;;;;;;4996643;28;20050;-69
2023/06/11 03:13:21;;;;;;;10.75;6.95;;;17.40;99.90;;;;;;4960521;28;213171;-70
2023/06/11 03:15:47;;;;;;;15.55;8.07;;;17.40;99.90;;;;;;4995602;28;20089;-70
2023/06/11 03:18:13;;;;;;;16.83;7.85;;;17.40;99.90;;;;;;4963892;28;209818;-69
2023/06/11 03:20:39;;;;;;;11.77;7.72;;;17.30;99.90;;;;;;5027441;28;20069;-70
2023/06/11 03:23:06;;;;;;;11.45;7.60;;;17.30;99.90;;;;;;4996646;28;206502;-69
2023/06/11 03:25:32;;;;;;;13.68;8.15;;;17.30;99.90;;;;;;4951925;28;74391;-69
2023/06/11 03:27:58;;;;;;;13.60;8.27;;;17.30;99.90;;;;;;4989553;28;20053;-69
2023/06/11 03:30:24;;;;;;;12.35;7.72;;;17.30;99.90;;;;;;4975593;28;207995;-69
2023/06/11 03:32:50;;;;;;;12.10;8.40;;;17.30;99.90;;;;;;5007129;28;20082;-70
2023/06/11 03:35:17;;;;;;;12.30;8.00;;;17.30;99.90;;;;;;4947151;28;196450;-70
2023/06/11 03:37:43;;;;;;;14.52;8.30;;;17.30;99.90;;;;;;4988687;28;20049;-71
2023/06/11 03:40:09;;;;;;;12.07;7.63;;;17.20;99.90;;;;;;4957418;28;208786;-70
2023/06/11 03:42:35;;;;;;;12.63;8.07;;;17.20;99.90;;;;;;5035619;28;20060;-70
2023/06/11 03:45:01;;;;;;;14.82;8.50;;;17.20;99.90;;;;;;4971686;28;224874;-72
2023/06/11 03:47:27;;;;;;;11.95;8.40;;;17.30;99.90;;;;;;5005137;28;20054;-71
2023/06/11 03:49:53;;;;;;;12.07;8.55;;;17.20;99.90;;;;;;4951410;28;209215;-70
2023/06/11 03:52:19;;;;;;;14.88;8.32;;;17.20;99.90;;;;;;4999920;28;20526;-70
2023/06/11 03:54:46;;;;;;;14.18;8.40;;;17.20;99.90;;;;;;4916084;28;221797;-70
2023/06/11 03:57:12;;;;;;;14.52;8.60;;;17.30;99.90;;;;;;4981806;28;20051;-70
2023/06/11 03:59:39;;;;;;;16.00;8.88;;;17.30;99.90;;;;;;4951906;28;209192;-70
2023/06/11 04:02:05;;;;;;;14.68;8.88;;;17.40;99.90;;;;;;4992740;28;20066;-70
2023/06/11 04:04:32;;;;;;;14.57;8.88;;;17.30;99.90;;;;;;4954930;28;214578;-70
2023/06/11 04:06:58;;;;;;;12.38;8.70;;;17.40;99.90;;;;;;5004513;28;20151;-69
2023/06/11 04:09:25;;;;;;;13.18;8.80;;;17.40;99.90;;;;;;4963734;28;212930;-69
2023/06/11 04:11:51;;;;;;;12.02;8.45;;;17.40;99.90;;;;;;5015339;28;20061;-71
2023/06/11 04:14:17;;;;;;;14.75;8.77;;;17.50;99.90;;;;;;4959923;28;69909;-70
2023/06/11 04:16:43;;;;;;;15.63;8.93;;;17.50;99.90;;;;;;4982773;28;20061;-69
2023/06/11 04:19:09;;;;;;;16.77;8.85;;;17.60;99.90;;;;;;4944268;28;209777;-69
2023/06/11 04:21:36;;;;;;;15.75;8.90;;;17.60;99.90;;;;;;4996403;28;20050;-69
2023/06/11 04:24:03;;;;;;;12.65;9.38;;;17.60;99.90;;;;;;4946233;28;213861;-70
2023/06/11 04:26:31;;;;;;;13.18;8.77;;;17.70;99.90;;;;;;5012255;28;20057;-69
2023/06/11 04:28:58;;;;;;;13.90;8.95;;;17.70;99.90;;;;;;4962428;28;190454;-70
2023/06/11 04:31:26;;;;;;;14.07;9.38;;;17.80;99.90;;;;;;5006667;28;20046;-71
2023/06/11 04:33:55;;;;;;;14.25;9.60;;;17.80;99.90;;;;;;4941048;28;210701;-70
2023/06/11 04:36:24;;;;;;;13.15;9.00;;;17.80;99.90;;;;;;5006747;28;20057;-70
2023/06/11 04:38:51;;;;;;;11.70;8.80;;;17.90;99.90;;;;;;4955529;28;179037;-71
2023/06/11 04:41:17;;;;;;;15.13;9.30;;;17.90;99.90;;;;;;5017124;28;20534;-70
2023/06/11 04:43:46;;;;;;;14.15;9.57;;;17.90;99.90;;;;;;4952341;28;210701;-70
2023/06/11 04:46:12;;;;;;;14.93;9.57;;;18.00;99.90;;;;;;5026740;28;20046;-71
2023/06/11 04:48:38;;;;;;;13.73;9.35;;;18.00;99.90;;;;;;4937281;28;206515;-71
2023/06/11 04:51:04;;;;;;;16.10;9.38;;;18.10;99.90;;;;;;4995336;28;20053;-70
2023/06/11 04:53:31;;;;;;;14.48;9.20;;;18.20;99.90;;;;;;4913276;28;236252;-70
2023/06/11 04:56:02;;;;;;;13.13;8.88;;;18.20;99.90;;;;;;4990736;28;20057;-71
2023/06/11 04:58:30;;;;;;;14.93;9.85;;;18.30;99.90;;;;;;4948289;28;217855;-71
2023/06/11 05:00:57;;;;;;;13.68;9.35;;;18.40;99.90;;;;;;5010919;28;20054;-71
2023/06/11 05:03:25;;;;;;;13.87;9.60;;;18.40;99.90;;;;;;4939517;28;215980;-71
2023/06/11 05:05:52;;;;;;;13.75;8.88;;;18.50;99.90;;;;;;4987852;28;20050;-70
2023/06/11 05:08:24;;;;;;;12.30;9.25;;;18.60;99.90;;;;;;4969629;28;206708;-69
2023/06/11 05:10:51;;;;;;;12.13;9.23;;;18.70;99.90;;;;;;4977605;28;20595;-70
2023/06/11 05:13:26;;;;;;;13.87;8.87;;;18.70;99.90;;;;;;4930396;28;209298;-72
2023/06/11 05:15:54;;;;;;;12.95;9.35;;;18.80;99.90;;;;;;5014823;28;20057;-71
2023/06/11 05:18:20;;;;;;;12.93;9.00;;;18.90;99.90;;;;;;4930062;28;211834;-72
2023/06/11 05:20:49;;;;;;;12.85;9.63;;;19.00;99.90;;;;;;4985029;28;20508;-72
2023/06/11 05:23:15;;;;;;;14.60;9.23;;;19.10;99.90;;;;;;4961425;28;221468;-72
2023/06/11 05:25:47;;;;;;;14.00;8.98;;;19.20;99.90;;;;;;5012297;28;20043;-71
2023/06/11 05:28:15;;;;;;;13.35;9.02;;;19.30;99.90;;;;;;4939750;28;222962;-70
2023/06/11 05:30:45;;;;;;;13.57;8.10;;;19.40;99.90;;;;;;4998374;28;20065;-70
2023/06/11 05:33:16;;;;;;;14.25;9.07;;;19.50;99.90;;;;;;4935616;28;212243;-70
2023/06/11 05:35:43;;;;;;;13.82;8.57;;;19.70;99.90;;;;;;5005536;28;20053;-71
2023/06/11 05:38:10;;;;;;;13.98;8.55;;;19.80;99.90;;;;;;4975309;28;217632;-71
2023/06/11 05:40:36;;;;;;;12.95;8.45;;;19.90;99.90;;;;;;4980786;28;20053;-71
2023/06/11 05:43:06;;;;;;;12.50;8.55;;;20.10;99.90;;;;;;5019408;28;20054;-71
2023/06/11 05:45:33;;;;;;;13.13;8.48;;;20.30;99.90;;;;;;4963337;28;37053;-70
2023/06/11 05:48:00;;;;;;;15.77;8.27;;;20.50;99.90;;;;;;4994770;28;20471;-71
2023/06/11 05:50:27;;;;;;;15.32;8.30;;;20.70;99.90;;;;;;4957423;28;207533;-72
2023/06/11 05:52:53;;;;;;;14.07;8.02;;;20.90;99.90;;;;;;4983232;28;20084;-70
2023/06/11 05:55:19;;;;;;;12.73;8.00;;;21.20;99.90;;;;;;4942283;28;190055;-71
2023/06/11 05:57:45;;;;;;;12.43;8.02;;;21.40;99.90;;;;;;4983410;28;20054;-72
2023/06/11 06:00:12;;;;;;;13.10;7.57;;;21.60;99.90;;;;;;4959262;28;208839;-70
2023/06/11 06:02:39;;;;;;;13.75;8.32;;;21.80;99.90;;;;;;4981780;28;20069;-71
2023/06/11 06:05:06;;;;;;;14.18;8.38;;;22.00;99.90;;;;;;4959380;28;223701;-72
2023/06/11 06:07:33;;;;;;;11.02;7.93;;;22.10;99.90;;;;;;4979194;28;20057;-71
2023/06/11 06:09:59;;;;;;;11.52;7.60;;;22.20;99.90;;;;;;4955510;28;217686;-71
2023/06/11 06:12:26;;;;;;;12.90;7.93;;;22.40;99.80;;;;;;4984540;28;20066;-71
2023/06/11 06:14:52;;;;;;;12.48;7.65;;;22.70;99.60;;;;;;4963857;28;208902;-71
2023/06/11 06:17:18;;;;;;;14.35;8.30;;;22.90;99.80;;;;;;4999307;28;20065;-71
2023/06/11 06:19:44;;;;;;;17.85;8.13;;;23.10;99.20;;;;;;4963078;28;212207;-71
2023/06/11 06:22:10;;;;;;;11.68;7.20;;;23.30;99.20;;;;;;4985268;28;20054;-71
2023/06/11 06:24:36;;;;;;;15.00;7.40;;;23.50;99.20;;;;;;4941893;28;208268;-71
2023/06/11 06:27:02;;;;;;;13.30;7.38;;;23.80;99.10;;;;;;4984398;28;20057;-71
2023/06/11 06:29:31;;;;;;;11.27;7.55;;;24.00;98.50;;;;;;4956651;28;204115;-70
2023/06/11 06:31:57;;;;;;;13.15;7.63;;;24.10;97.90;;;;;;5010920;28;20054;-70
2023/06/11 06:34:23;;;;;;;13.23;7.13;;;24.20;98.10;;;;;;4954637;28;216727;-70
2023/06/11 06:36:50;;;;;;;14.20;7.55;;;24.50;98.20;;;;;;4995813;28;20132;-70
2023/06/11 06:39:16;;;;;;;13.30;7.00;;;24.70;97.80;;;;;;4954063;28;209322;-71
2023/06/11 06:41:42;;;;;;;12.73;7.13;;;24.80;97.50;;;;;;5014710;28;20407;-72
2023/06/11 06:44:08;;;;;;;11.40;6.68;;;25.00;97.40;;;;;;4953573;28;217585;-71
2023/06/11 06:46:34;;;;;;;10.27;6.55;;;25.30;97.20;;;;;;4999288;28;20046;-72
2023/06/11 06:49:00;;;;;;;12.20;7.55;;;25.60;96.80;;;;;;4953085;28;227547;-70
2023/06/11 06:51:29;;;;;;;12.50;6.90;;;25.60;96.60;;;;;;5007461;28;20054;-73
2023/06/11 06:53:55;;;;;;;12.30;6.68;;;25.80;96.30;;;;;;4929071;28;216555;-71
2023/06/11 06:56:22;;;;;;;12.02;6.65;;;26.00;96.20;;;;;;5002978;28;20515;-71
2023/06/11 06:58:49;;;;;;;13.38;6.60;;;26.20;96.30;;;;;;4945340;28;181429;-71
2023/06/11 07:01:15;;;;;;;11.77;6.90;;;26.30;95.60;;;;;;5002980;28;20065;-70
2023/06/11 07:03:42;;;;;;;10.68;6.93;;;26.40;95.10;;;;;;4953970;28;215766;-71
2023/06/11 07:06:08;;;;;;;12.15;6.68;;;26.20;95.70;;;;;;4995208;28;20125;-71
2023/06/11 07:08:35;;;;;;;10.95;6.68;;;26.50;95.50;;;;;;4945182;28;74570;-71
2023/06/11 07:11:01;;;;;;;13.15;7.40;;;26.60;95.00;;;;;;4998716;28;20058;-70
2023/06/11 07:13:27;;;;;;;13.10;6.32;;;26.80;94.90;;;;;;4934343;28;216092;-70
2023/06/11 07:15:53;;;;;;;12.57;6.28;;;27.30;94.90;;;;;;5024486;28;20050;-71
2023/06/11 07:18:21;;;;;;;13.63;7.17;;;27.70;94.60;;;;;;4914796;28;208663;-72
2023/06/11 07:20:48;;;;;;;12.57;7.10;;;27.70;94.40;;;;;;4986244;28;20050;-71
2023/06/11 07:23:14;;;;;;;14.45;6.32;;;27.80;93.80;;;;;;4949225;28;208871;-71
2023/06/11 07:25:43;;;;;;;11.90;6.70;;;28.20;94.00;;;;;;5029297;28;20046;-71
2023/06/11 07:28:09;;;;;;;12.70;6.68;;;28.60;93.20;;;;;;4989506;28;215614;-71
2023/06/11 07:30:38;;;;;;;11.80;6.18;;;28.50;93.00;;;;;;4967853;28;20056;-70
2023/06/11 07:33:04;;;;;;;13.57;6.50;;;28.60;93.10;;;;;;5006977;28;20056;-70
2023/06/11 07:35:30;;;;;;;12.18;6.30;;;28.60;93.00;;;;;;4958082;28;208835;-71
2023/06/11 07:37:57;;;;;;;9.93;6.00;;;28.60;92.60;;;;;;5005414;28;20443;-70
2023/06/11 07:40:23;;;;;;;12.02;6.25;;;28.80;92.90;;;;;;4960885;28;206083;-70
2023/06/11 07:42:49;;;;;;;13.80;6.13;;;29.00;92.40;;;;;;4995080;28;20139;-70
2023/06/11 07:45:15;;;;;;;11.07;6.30;;;29.10;92.50;;;;;;4962291;28;206765;-69
2023/06/11 07:47:42;;;;;;;11.73;6.45;;;29.30;92.10;;;;;;4981062;28;20047;-68
2023/06/11 07:50:10;;;;;;;11.73;6.20;;;29.30;92.00;;;;;;4974124;28;213564;-71
2023/06/11 07:52:36;;;;;;;10.38;5.70;;;29.50;92.00;;;;;;5016557;28;20071;-71
2023/06/11 07:55:03;;;;;;;12.85;5.90;;;29.80;92.20;;;;;;4946362;28;209223;-71
2023/06/11 07:57:29;;;;;;;10.95;5.60;;;30.10;92.10;;;;;;4990630;28;20054;-73
2023/06/11 07:59:56;;;;;;;10.48;5.80;;;30.30;91.10;;;;;;4974478;28;202320;-72
2023/06/11 08:02:22;;;;;;;10.52;5.63;;;30.40;91.40;;;;;;5005395;28;20598;-71
2023/06/11 08:04:48;;;;;;;10.07;6.18;;;30.70;91.40;;;;;;4955665;28;209304;-72
2023/06/11 08:07:15;;;;;;;10.43;5.90;;;31.00;91.10;;;;;;4991021;28;20046;-73
2023/06/11 08:09:41;;;;;;;11.80;5.53;;;31.30;90.80;;;;;;4927053;28;208155;-73
2023/06/11 08:12:08;;;;;;;10.23;5.30;;;31.40;90.80;;;;;;4982172;28;20085;-72
2023/06/11 08:14:35;;;;;;;9.25;5.07;;;31.70;90.90;;;;;;4965732;28;209527;-72
2023/06/11 08:17:02;;;;;;;13.35;5.05;;;31.80;90.50;;;;;;4991681;28;20065;-72
2023/06/11 08:19:28;;;;;;;9.30;5.28;;;32.10;90.20;;;;;;4966353;28;209327;-72
2023/06/11 08:21:55;;;;;;;9.50;5.20;;;32.30;90.20;;;;;;5000909;28;20065;-71
2023/06/11 08:24:22;;;;;;;12.70;5.70;;;32.50;89.90;;;;;;4945866;28;208696;-71
2023/06/11 08:26:48;;;;;;;9.85;5.07;;;32.60;88.90;;;;;;4992333;28;20050;-72
2023/06/11 08:29:15;;;;;;;12.10;5.22;;;32.90;88.60;;;;;;4947999;28;217048;-72
2023/06/11 08:31:42;;;;;;;10.88;5.28;;;33.20;88.20;;;;;;5003333;28;20053;-72
2023/06/11 08:34:08;;;;;;;10.45;5.22;;;33.20;87.40;;;;;;4970041;28;205365;-72
2023/06/11 08:36:35;;;;;;;9.60;4.97;;;33.50;86.90;;;;;;5015834;28;20100;-72
2023/06/11 08:39:01;;;;;;;11.15;4.75;;;33.70;84.80;;;;;;4939672;28;206133;-71
2023/06/11 08:41:31;;;;;;;9.80;4.90;;;33.70;86.10;;;;;;4979046;28;20046;-73
2023/06/11 08:43:58;;;;;;;;;;;33.80;84.60;;;;;;4955772;28;211562;-71
2023/06/11 08:46:24;;;;;;;10.35;4.80;;;33.80;83.70;;;;;;5009119;28;19927;-72
2023/06/11 08:49:06;;;;;;;9.77;5.13;;;34.00;85.40;;;;;;4960325;28;208428;-72
2023/06/11 08:51:39;;;;;;;10.65;5.25;;;34.30;82.30;;;;;;4996512;28;20591;-72
2023/06/11 08:54:06;;;;;;;10.10;4.70;;;34.10;82.10;;;;;;4941816;28;208200;-72
2023/06/11 08:56:33;;;;;;;12.38;4.72;;;34.30;84.10;;;;;;4997128;28;20054;-72
2023/06/11 08:59:00;;;;;;;9.60;5.38;;;34.10;82.60;;;;;;4957896;28;209506;-70
2023/06/11 09:01:27;;;;;;;10.23;4.90;;;34.20;81.60;;;;;;4976704;28;20062;-71
2023/06/11 09:03:54;;;;;;;10.52;4.55;;;34.30;82.40;;;;;;4937999;28;211547;-72
2023/06/11 09:06:20;;;;;;;11.77;4.97;;;34.60;81.60;;;;;;4991063;28;20049;-73
2023/06/11 09:09:05;;;;;;;8.52;4.28;;;35.00;80.40;;;;;;4947191;28;208510;-71
2023/06/11 09:11:35;;;;;;;12.18;4.47;;;35.40;81.70;;;;;;4994029;28;20384;-70
2023/06/11 09:14:02;;;;;;;10.88;4.60;;;35.80;80.80;;;;;;4950174;28;207046;-70
2023/06/11 09:16:36;;;;;;;9.80;5.15;;;36.00;80.30;;;;;;5019993;28;20057;-69
2023/06/11 09:19:02;;;;;;;9.07;4.57;;;36.30;79.30;;;;;;4947164;28;214855;-69
2023/06/11 09:21:29;;;;;;;10.18;4.50;;;36.50;78.70;;;;;;4994690;28;20069;-70
2023/06/11 09:23:55;;;;;;;8.70;4.45;;;36.70;78.20;;;;;;4940162;28;197691;-68
2023/06/11 09:26:22;;;;;;;9.10;4.75;;;36.60;77.80;;;;;;4998633;28;20042;-69
2023/06/11 09:28:53;;;;;;;7.90;4.20;;;36.90;77.40;;;;;;4970351;28;206576;-69
2023/06/11 09:31:20;;;;;;;12.57;4.97;;;37.20;77.30;;;;;;5010259;28;20061;-70
2023/06/11 09:33:46;;;;;;;10.00;4.70;;;37.60;75.60;;;;;;4950897;28;214921;-71
2023/06/11 09:36:16;;;;;;;10.35;4.30;;;37.90;75.30;;;;;;4994304;28;20046;-70
2023/06/11 09:38:46;;;;;;;10.63;3.85;;;38.10;75.40;;;;;;4925106;28;93358;-71
2023/06/11 09:41:12;;;;;;;8.52;4.30;;;38.50;75.60;;;;;;4984055;28;20054;-71
2023/06/11 09:43:39;;;;;;;11.15;4.50;;;38.70;74.90;;;;;;4956694;28;206830;-71
2023/06/11 09:46:06;;;;;;;8.02;4.28;;;38.50;72.80;;;;;;5023612;28;20701;-70
2023/06/11 09:48:33;;;;;;;8.95;4.32;;;38.40;71.40;;;;;;4964587;28;207182;-71
2023/06/11 09:51:02;;;;;;;8.23;3.95;;;38.00;72.30;;;;;;5011818;28;20064;-72
2023/06/11 09:53:29;;;;;;;8.57;4.40;;;38.30;72.70;;;;;;4928546;28;229869;-72
2023/06/11 09:55:56;;;;;;;10.73;4.03;;;38.60;71.10;;;;;;5012670;28;20062;-71
2023/06/11 09:58:23;;;;;;;8.75;3.97;;;38.50;71.00;;;;;;4936613;28;215156;-71
2023/06/11 10:01:00;;;;;;;10.70;4.10;;;38.60;69.40;;;;;;4995922;28;20069;-71
2023/06/11 10:03:30;;;;;;;8.25;3.90;;;38.00;68.90;;;;;;4962535;28;220287;-71
2023/06/11 10:05:57;;;;;;;10.73;3.97;;;38.00;69.60;;;;;;4994919;28;20127;-71
2023/06/11 10:08:28;;;;;;;8.98;4.00;;;38.00;68.90;;;;;;4933613;28;212374;-73
2023/06/11 10:10:56;;;;;;;10.52;4.10;;;38.00;68.30;;;;;;5016710;28;20064;-71
2023/06/11 10:13:30;;;;;;;8.05;3.67;;;38.20;69.20;;;;;;4981473;28;221715;-71
2023/06/11 10:16:07;;;;;;;9.25;3.80;;;38.40;69.20;;;;;;4992916;28;20075;-71
2023/06/11 10:18:33;;;;;;;10.68;4.00;;;39.10;68.80;;;;;;4934403;28;211567;-71
2023/06/11 10:21:01;;;;;;;8.57;3.97;;;39.20;67.20;;;;;;4992005;28;20512;-71
2023/06/11 10:23:39;;;;;;;9.75;3.80;;;39.20;67.50;;;;;;4940565;28;208022;-72
2023/06/11 10:26:05;;;;;;;46.95;8.07;;;39.60;65.50;;;;;;4984760;28;20407;-73
2023/06/11 10:28:42;;;;;;;8.88;4.38;;;39.70;67.30;;;;;;4958152;28;177549;-72
2023/06/11 10:31:08;;;;;;;10.98;4.05;;;39.60;66.50;;;;;;4997625;28;20057;-72
2023/06/11 10:33:44;;;;;;;11.73;3.97;;;39.90;66.70;;;;;;4938592;28;232643;-73
2023/06/11 10:36:31;;;;;;;11.70;4.40;;;39.80;65.70;;;;;;4997280;28;20046;-73
2023/06/11 10:39:12;;;;;;;10.75;4.57;;;39.70;65.20;;;;;;4946820;28;207724;-73
2023/06/11 10:41:39;;;;;;;11.38;4.03;;;40.00;65.50;;;;;;5023473;28;20523;-72
2023/06/11 10:44:06;;;;;;;12.48;4.20;;;39.90;65.40;;;;;;4956465;28;209608;-72
2023/06/11 10:46:45;;;;;;;10.00;3.80;;;40.20;65.00;;;;;;5011840;28;20043;-73
2023/06/11 10:49:15;;;;;;;12.55;4.32;;;39.90;62.90;;;;;;4966393;28;166844;-73
2023/06/11 10:51:41;;;;;;;10.73;3.75;;;39.80;64.70;;;;;;5006137;28;20046;-72
2023/06/11 10:54:07;;;;;;;8.43;3.70;;;40.00;64.60;;;;;;4920869;28;207031;-73
2023/06/11 10:56:40;;;;;;;7.88;3.60;;;39.80;62.80;;;;;;4987379;28;20054;-73
2023/06/11 10:59:09;;;;;;;10.48;3.80;;;39.70;64.00;;;;;;4939760;28;209448;-72
2023/06/11 11:01:37;;;;;;;9.90;3.53;;;39.90;62.60;;;;;;4986419;28;20063;-72
2023/06/11 11:04:03;;;;;;;8.88;3.70;;;40.00;62.60;;;;;;4948430;28;208945;-72
2023/06/11 11:06:30;;;;;;;8.98;3.90;;;39.80;61.00;;;;;;4994052;28;20062;-72
2023/06/11 11:08:57;;;;;;;10.13;3.65;;;39.40;62.00;;;;;;4940494;28;212839;-75
2023/06/11 11:11:24;;;;;;;9.63;3.80;;;39.60;62.10;;;;;;5004458;28;20581;-72
2023/06/11 11:13:51;;;;;;;9.10;3.58;;;39.90;62.20;;;;;;4950944;28;209691;-73
2023/06/11 11:16:20;;;;;;;11.20;3.67;;;39.90;61.60;;;;;;4996672;28;20061;-73
2023/06/11 11:18:49;;;;;;;7.97;3.45;;;40.40;62.20;;;;;;4947926;28;209666;-72
2023/06/11 11:21:16;;;;;;;11.45;3.65;;;40.50;60.70;;;;;;5002816;28;20502;-72
2023/06/11 11:23:46;;;;;;;9.50;3.40;;;40.30;59.70;;;;;;4946134;28;213562;-72
2023/06/11 11:26:13;;;;;;;7.97;3.70;;;40.00;59.70;;;;;;5023474;28;20046;-72
2023/06/11 11:28:39;;;;;;;9.90;3.70;;;40.00;59.20;;;;;;4981548;28;212807;-73
2023/06/11 11:31:05;;;;;;;8.15;3.25;;;39.90;59.30;;;;;;5005718;28;20411;-72
2023/06/11 11:33:34;;;;;;;9.35;3.70;;;39.30;59.00;;;;;;4930305;28;213563;-73
2023/06/11 11:36:02;;;;;;;;;;;39.00;59.00;;;;;;4983837;28;20054;-73
2023/06/11 11:38:34;;;;;;;10.27;3.75;;;39.20;59.50;;;;;;4936364;28;207092;-73
2023/06/11 11:41:00;;;;;;;11.82;3.72;;;39.10;58.40;;;;;;5009479;28;20931;-73
2023/06/11 11:43:34;;;;;;;9.95;4.25;;;39.10;57.90;;;;;;4938952;28;209794;-73
2023/06/11 11:46:00;;;;;;;13.88;7.97;;;39.00;56.90;;;;;;5009563;28;20057;-73
2023/06/11 11:48:27;;;;;;;13.55;4.82;;;39.00;57.40;;;;;;4951706;28;213016;-73
2023/06/11 11:51:05;;;;;;;11.18;3.85;;;39.30;57.40;;;;;;5014758;28;20061;-73
2023/06/11 11:53:32;;;;;;;8.60;3.63;;;39.60;57.10;;;;;;4933124;28;217165;-73
2023/06/11 11:55:58;;;;;;;10.60;3.85;;;40.10;57.80;;;;;;5000610;28;20054;-74
2023/06/11 11:58:24;;;;;;;9.93;4.28;;;39.70;56.70;;;;;;4931009;28;209150;-73
2023/06/11 12:00:52;;;;;;;16.33;4.03;;;40.10;54.70;;;;;;5007776;28;20050;-73
2023/06/11 12:03:20;;;;;;;10.65;3.80;;;40.20;57.70;;;;;;4966385;28;209094;-73
2023/06/11 12:06:01;;;;;;;10.18;3.80;;;40.60;55.80;;;;;;5006675;28;20058;-74
2023/06/11 12:08:29;;;;;;;8.07;3.65;;;40.30;52.80;;;;;;4949449;28;211429;-73
2023/06/11 12:10:57;;;;;;;8.40;3.53;;;39.90;54.60;;;;;;5010195;28;20053;-73
2023/06/11 12:13:23;;;;;;;8.43;3.58;;;39.60;53.80;;;;;;4926201;28;208835;-73
2023/06/11 12:15:49;;;;;;;9.15;3.50;;;39.90;54.30;;;;;;5035801;28;20037;-73
2023/06/11 12:18:15;;;;;;;11.13;3.90;;;40.00;53.30;;;;;;4981361;28;208647;-72
2023/06/11 12:20:42;;;;;;;10.85;3.50;;;40.20;53.40;;;;;;5038928;28;20042;-73
2023/06/11 12:23:08;;;;;;;11.55;3.75;;;39.60;52.60;;;;;;4980193;28;212096;-72
2023/06/11 12:25:35;;;;;;;12.07;3.50;;;39.50;52.50;;;;;;4958317;28;105158;-73
2023/06/11 12:28:02;;;;;;;10.48;3.60;;;39.60;53.60;;;;;;4989695;28;20050;-74
2023/06/11 12:30:33;;;;;;;7.88;3.40;;;40.30;53.50;;;;;;4946631;28;150320;-74
2023/06/11 12:32:59;;;;;;;10.65;3.47;;;40.70;51.00;;;;;;4983821;28;20050;-74
2023/06/11 12:35:27;;;;;;;9.70;3.63;;;40.50;51.90;;;;;;4959225;28;127268;-74
2023/06/11 12:37:54;;;;;;;7.90;3.20;;;40.30;51.80;;;;;;4987802;28;20525;-73